Stallings, North Carolina
Current Conditions -  °F | °C
As of 10:53 PM on Friday 24 Oct 2014 (Local Time) from KEQY Reporting Station
Clear Clear  
Wind Chill: 46°   Ceiling: Unl
Heat Index: 48°   Visibility: 10mi
Dew Point: 45°   Wind: 5mph
Humidity: 89%   Direction: 260°W
Pressure: 30.03"   Gusts: NA
Location:  35.082°N, 80.6782°W
Report Text: KEQY 250253Z AUTO 26004KT 10SM CLR 09/07 A3003 RMK AO2 SLP178 T00890072 51013
Loading
Personal Weather Stations






























Interactive Weather Map
Tropical Storm Tracking
New forecast layout! Learn more

10-Day Weather Forecast

Advertisements
Track Severe Weather on mobile